createdAt,value
2023-11-20T00:00:58.655Z,544.6
2023-11-20T00:02:00.669Z,544.6
2023-11-20T00:03:02.917Z,545
2023-11-20T00:04:05.731Z,545.6
2023-11-20T00:05:07.588Z,544.9
2023-11-20T00:06:09.318Z,544.6
2023-11-20T00:07:11.104Z,544.9
2023-11-20T00:08:12.836Z,544.9
2023-11-20T00:09:14.660Z,544.2
2023-11-20T00:10:16.463Z,544
2023-11-20T00:11:18.554Z,544.2
2023-11-20T00:12:20.409Z,543.8
2023-11-20T00:13:22.247Z,543.3
2023-11-20T00:14:24.098Z,542.8
2023-11-20T00:15:26.179Z,543.1
2023-11-20T00:16:28.060Z,542.5
2023-11-20T00:17:30.266Z,542
2023-11-20T00:18:32.230Z,542.3
2023-11-20T00:19:34.150Z,542
2023-11-20T00:20:35.872Z,541.5
2023-11-20T00:21:37.730Z,541.5
2023-11-20T00:22:39.485Z,542
2023-11-20T00:23:41.232Z,541.9
2023-11-20T00:24:43.261Z,542.8
2023-11-20T00:25:44.985Z,542.2
2023-11-20T00:26:46.779Z,542.4
2023-11-20T00:27:48.789Z,542.7
2023-11-20T00:28:50.640Z,542.6
2023-11-20T00:29:52.489Z,542
2023-11-20T00:30:54.441Z,541.4
2023-11-20T00:31:56.498Z,540.8
2023-11-20T00:32:58.651Z,540.5
2023-11-20T00:34:00.901Z,540.8
2023-11-20T00:35:02.686Z,540.5
2023-11-20T00:36:04.488Z,539.7
2023-11-20T00:37:06.784Z,539.7
2023-11-20T00:38:08.790Z,539.6
2023-11-20T00:39:10.575Z,540.2
2023-11-20T00:40:12.446Z,540.3
2023-11-20T00:41:14.342Z,539.5
2023-11-20T00:42:16.209Z,539.7
2023-11-20T00:43:18.056Z,540
2023-11-20T00:44:19.843Z,540.2
2023-11-20T00:45:21.683Z,540
2023-11-20T00:46:24.282Z,540.1
2023-11-20T00:47:26.602Z,539.9
2023-11-20T00:48:28.650Z,540.4
2023-11-20T00:49:30.477Z,540.3
2023-11-20T00:50:32.273Z,540.2
2023-11-20T00:51:34.371Z,540.6
2023-11-20T00:52:36.202Z,539.9
2023-11-20T00:53:37.973Z,540.6
2023-11-20T00:54:40.051Z,541.2
2023-11-20T00:55:42.165Z,541.1
2023-11-20T00:56:43.946Z,541.4
2023-11-20T00:57:45.924Z,540.9
2023-11-20T00:58:47.840Z,540.9
2023-11-20T00:59:49.633Z,541.2
2023-11-20T01:00:51.701Z,541.3
2023-11-20T01:01:53.866Z,541.7
2023-11-20T01:02:56.294Z,541.9
2023-11-20T01:03:58.682Z,542.1
2023-11-20T01:05:00.637Z,542.6
2023-11-20T01:06:02.463Z,543
2023-11-20T01:07:04.506Z,542.6
2023-11-20T01:08:08.726Z,542.5
2023-11-20T01:09:10.529Z,542.8
2023-11-20T01:10:12.678Z,542.6
2023-11-20T01:11:14.440Z,543
2023-11-20T01:12:16.239Z,543.8
2023-11-20T01:13:18.028Z,544.4
2023-11-20T01:14:20.101Z,544.9
2023-11-20T01:15:21.949Z,545.6
2023-11-20T01:16:23.793Z,546.2
2023-11-20T01:17:26.206Z,545.9
2023-11-20T01:18:28.404Z,545.4
2023-11-20T01:19:30.202Z,545.6
2023-11-20T01:20:32.041Z,545.7
2023-11-20T01:21:33.981Z,545.8
2023-11-20T01:22:35.766Z,545.5
2023-11-20T01:23:37.549Z,545.4
2023-11-20T01:24:39.523Z,545.5
2023-11-20T01:25:41.321Z,544.4
2023-11-20T01:26:43.113Z,543.9
2023-11-20T01:27:45.129Z,544.3
2023-11-20T01:28:47.005Z,544.1
2023-11-20T01:29:48.876Z,544.3
2023-11-20T01:30:50.959Z,543.8
2023-11-20T01:31:52.809Z,543.5
2023-11-20T01:32:54.962Z,543.9
2023-11-20T01:33:56.937Z,543.2
2023-11-20T01:34:58.788Z,543.5
2023-11-20T01:36:00.553Z,544.2
2023-11-20T01:37:02.786Z,544.3
2023-11-20T01:38:04.657Z,543.4
2023-11-20T01:39:06.430Z,543.5
2023-11-20T01:40:08.450Z,543.1
2023-11-20T01:41:10.255Z,542.8
2023-11-20T01:42:12.088Z,542.9
2023-11-20T01:43:13.978Z,542.7
2023-11-20T01:44:15.823Z,542.4
2023-11-20T01:45:17.757Z,542.4
2023-11-20T01:46:20.443Z,542.4
2023-11-20T01:47:22.204Z,542
2023-11-20T01:48:23.930Z,541.4
2023-11-20T01:49:25.668Z,541.4
2023-11-20T01:50:27.445Z,541.4
2023-11-20T01:51:29.680Z,541.4
2023-11-20T01:52:31.534Z,541.5
2023-11-20T01:53:33.309Z,541.2
2023-11-20T01:54:35.217Z,541.1
2023-11-20T01:55:37.036Z,541.2
2023-11-20T01:56:38.785Z,541.5
2023-11-20T01:57:40.806Z,541.9
2023-11-20T01:58:42.614Z,541.9
2023-11-20T01:59:44.389Z,541.2
2023-11-20T02:00:46.535Z,542.3
2023-11-20T02:01:48.428Z,542.7
2023-11-20T02:02:50.733Z,544.1
2023-11-20T02:03:53.247Z,544
2023-11-20T02:04:55.090Z,544.2
2023-11-20T02:05:56.899Z,543.6
2023-11-20T02:06:58.875Z,543.3
2023-11-20T02:08:00.748Z,542.7
2023-11-20T02:09:02.515Z,542.7
2023-11-20T02:10:04.646Z,543.7
2023-11-20T02:11:09.175Z,543.3
2023-11-20T02:12:10.958Z,543.3
2023-11-20T02:13:13.092Z,543.6
2023-11-20T02:14:14.874Z,543.6
2023-11-20T02:15:16.668Z,542.9
2023-11-20T02:16:18.590Z,542.9
2023-11-20T02:17:20.670Z,542.7
2023-11-20T02:18:22.529Z,542.9
2023-11-20T02:19:24.322Z,543.2
2023-11-20T02:20:26.167Z,543.5
2023-11-20T02:21:27.903Z,543.3
2023-11-20T02:22:29.697Z,542.9
2023-11-20T02:23:31.481Z,542.9
2023-11-20T02:24:33.469Z,543.2
2023-11-20T02:25:35.226Z,543.2
2023-11-20T02:26:36.973Z,543.5
2023-11-20T02:27:38.953Z,543.1
2023-11-20T02:28:40.751Z,543.1
2023-11-20T02:29:45.345Z,543.1
2023-11-20T02:30:47.378Z,543.4
2023-11-20T02:31:49.582Z,543.1
2023-11-20T02:32:51.569Z,542.5
2023-11-20T02:33:53.526Z,542.6
2023-11-20T02:34:55.428Z,543.7
2023-11-20T02:35:57.138Z,544.2
2023-11-20T02:36:59.314Z,544.2
2023-11-20T02:38:01.229Z,544.6
2023-11-20T02:39:03.011Z,545
2023-11-20T02:40:04.986Z,545
2023-11-20T02:41:06.754Z,544.3
2023-11-20T02:42:08.494Z,544
2023-11-20T02:43:10.374Z,543.9
2023-11-20T02:44:12.241Z,544.1
2023-11-20T02:45:14.164Z,544.3
2023-11-20T02:46:16.140Z,544.6
2023-11-20T02:47:18.542Z,544.3
2023-11-20T02:48:20.434Z,543.5
2023-11-20T02:49:22.246Z,542.9
2023-11-20T02:50:24.028Z,543.4
2023-11-20T02:51:25.791Z,544
2023-11-20T02:52:27.539Z,543.6
2023-11-20T02:53:29.338Z,542.8
2023-11-20T02:54:31.527Z,543.1
2023-11-20T02:55:33.424Z,543.9
2023-11-20T02:56:35.189Z,542.2
2023-11-20T02:57:37.178Z,541.9
2023-11-20T02:58:39.147Z,542.9
2023-11-20T02:59:41.000Z,543.6
2023-11-20T03:00:43.068Z,543.7
2023-11-20T03:01:45.226Z,543.5
2023-11-20T03:02:47.666Z,543.2
2023-11-20T03:03:50.524Z,543.6
2023-11-20T03:04:52.433Z,543.5
2023-11-20T03:05:54.271Z,543.5
2023-11-20T03:06:56.406Z,542.9
2023-11-20T03:07:58.176Z,543
2023-11-20T03:08:59.910Z,543.2
2023-11-20T03:10:02.165Z,543.6
2023-11-20T03:11:04.070Z,543.8
2023-11-20T03:12:05.885Z,544.2
2023-11-20T03:13:07.923Z,544
2023-11-20T03:14:09.760Z,543.8
2023-11-20T03:15:11.816Z,543.6
2023-11-20T03:16:14.439Z,543.6
2023-11-20T03:17:17.094Z,543.7
2023-11-20T03:18:19.340Z,543.7
2023-11-20T03:19:21.247Z,544.6
2023-11-20T03:20:23.062Z,544.7
2023-11-20T03:21:24.784Z,544.6
2023-11-20T03:22:26.565Z,544.5
2023-11-20T03:23:28.280Z,544.8
2023-11-20T03:24:30.077Z,545.4
2023-11-20T03:25:31.832Z,545.7
2023-11-20T03:26:33.586Z,546.1
2023-11-20T03:27:35.520Z,545.9
2023-11-20T03:28:37.394Z,546.3
2023-11-20T03:29:39.191Z,546.6
2023-11-20T03:30:41.243Z,547.8
2023-11-20T03:31:43.368Z,547.8
2023-11-20T03:32:45.209Z,547.4
2023-11-20T03:33:47.378Z,546.9
2023-11-20T03:34:49.177Z,546.8
2023-11-20T03:35:51.001Z,547.4
2023-11-20T03:36:53.042Z,547.9
2023-11-20T03:37:54.941Z,547.6
2023-11-20T03:38:56.691Z,547.4
2023-11-20T03:39:58.537Z,547.3
2023-11-20T03:41:00.386Z,547.1
2023-11-20T03:42:02.219Z,547.2
2023-11-20T03:43:04.051Z,548.5
2023-11-20T03:44:05.863Z,549.1
2023-11-20T03:45:07.639Z,548.5
2023-11-20T03:46:09.919Z,548.1
2023-11-20T03:47:11.823Z,547.5
2023-11-20T03:48:13.619Z,547.7
2023-11-20T03:49:15.452Z,547.6
2023-11-20T03:50:17.230Z,547.4
2023-11-20T03:51:19.056Z,546.6
2023-11-20T03:52:20.838Z,546.6
2023-11-20T03:53:22.526Z,546.7
2023-11-20T03:54:24.313Z,547
2023-11-20T03:55:26.133Z,547.1
2023-11-20T03:56:28.156Z,546.5
2023-11-20T03:57:29.976Z,546.8
2023-11-20T03:58:33.918Z,547
2023-11-20T03:59:35.791Z,547.6
2023-11-20T04:00:37.731Z,548
2023-11-20T04:01:39.850Z,548
2023-11-20T04:02:42.035Z,547.4
2023-11-20T04:03:44.385Z,547.2
2023-11-20T04:04:46.840Z,546.7
2023-11-20T04:05:48.720Z,547.4
2023-11-20T04:06:50.691Z,547.7
2023-11-20T04:07:52.485Z,547.6
2023-11-20T04:08:54.239Z,547.8
2023-11-20T04:09:56.434Z,548.4
2023-11-20T04:10:58.251Z,548.5
2023-11-20T04:12:00.065Z,548.4
2023-11-20T04:13:02.042Z,548.8
2023-11-20T04:14:04.193Z,548.6
2023-11-20T04:15:06.021Z,548.4
2023-11-20T04:16:09.316Z,548.6
2023-11-20T04:17:12.803Z,548.1
2023-11-20T04:18:16.343Z,548
2023-11-20T04:19:19.959Z,547.8
2023-11-20T04:20:23.424Z,547.9
2023-11-20T04:21:26.911Z,547.7
2023-11-20T04:22:29.129Z,547.9
2023-11-20T04:23:30.913Z,548
2023-11-20T04:24:32.670Z,548.3
2023-11-20T04:25:34.459Z,549.1
2023-11-20T04:26:36.193Z,548.9
2023-11-20T04:27:38.111Z,549.2
2023-11-20T04:28:39.899Z,549.1
2023-11-20T04:29:41.757Z,548.6
2023-11-20T04:30:44.181Z,548.6
2023-11-20T04:31:46.884Z,548.5
2023-11-20T04:32:48.975Z,548.5
2023-11-20T04:33:50.963Z,548.4
2023-11-20T04:34:52.762Z,547.9
2023-11-20T04:35:54.622Z,547.6
2023-11-20T04:36:56.448Z,547.4
2023-11-20T04:37:58.186Z,546.7
2023-11-20T04:38:59.981Z,546.4
2023-11-20T04:40:02.231Z,546.6
2023-11-20T04:41:04.075Z,546.8
2023-11-20T04:42:05.858Z,546.8
2023-11-20T04:43:07.825Z,547.1
2023-11-20T04:44:09.768Z,546.8
2023-11-20T04:45:11.903Z,547
2023-11-20T04:46:14.870Z,546.8
2023-11-20T04:47:16.809Z,547.1
2023-11-20T04:48:18.579Z,546.8
2023-11-20T04:49:20.337Z,546.6
2023-11-20T04:50:22.161Z,546.8
2023-11-20T04:51:26.845Z,546.7
2023-11-20T04:52:28.590Z,546.6
2023-11-20T04:53:30.345Z,546.3
2023-11-20T04:54:32.085Z,546.4
2023-11-20T04:55:33.838Z,546.3
2023-11-20T04:56:35.661Z,546.3
2023-11-20T04:57:37.938Z,546.6
2023-11-20T04:58:40.282Z,546.7
2023-11-20T04:59:42.269Z,546.5
2023-11-20T05:00:44.729Z,546.7
2023-11-20T05:01:47.202Z,546.7
2023-11-20T05:02:49.401Z,547.2
2023-11-20T05:03:51.834Z,546.8
2023-11-20T05:04:53.733Z,546.2
2023-11-20T05:05:55.503Z,546.4
2023-11-20T05:06:57.749Z,547
2023-11-20T05:07:59.522Z,546.9
2023-11-20T05:09:01.335Z,546.7
2023-11-20T05:10:03.614Z,546.4
2023-11-20T05:11:05.508Z,545.9
2023-11-20T05:12:07.278Z,545.5
2023-11-20T05:13:09.113Z,545.5
2023-11-20T05:14:10.863Z,545.9
2023-11-20T05:15:12.694Z,546
2023-11-20T05:16:14.654Z,545.7
2023-11-20T05:17:16.478Z,545.6
2023-11-20T05:18:18.248Z,545.5
2023-11-20T05:19:20.087Z,545.2
2023-11-20T05:20:21.892Z,545
2023-11-20T05:21:23.697Z,544.6
2023-11-20T05:22:25.511Z,544.7
2023-11-20T05:23:27.324Z,544.4
2023-11-20T05:24:29.108Z,545.1
2023-11-20T05:25:30.850Z,545.5
2023-11-20T05:26:32.606Z,545.4
2023-11-20T05:27:34.388Z,545.4
2023-11-20T05:28:36.171Z,545.1
2023-11-20T05:29:37.908Z,545.2
2023-11-20T05:30:40.632Z,545.4
2023-11-20T05:31:43.105Z,544.6
2023-11-20T05:32:45.150Z,545
2023-11-20T05:33:47.163Z,546
2023-11-20T05:34:48.926Z,545.9
2023-11-20T05:35:50.713Z,546
2023-11-20T05:36:52.637Z,546.1
2023-11-20T05:37:54.669Z,545.8
2023-11-20T05:38:56.525Z,545.7
2023-11-20T05:39:58.468Z,545.3
2023-11-20T05:41:00.419Z,545.4
2023-11-20T05:42:02.221Z,545.5
2023-11-20T05:43:04.337Z,545.7
2023-11-20T05:44:06.196Z,545.7
2023-11-20T05:45:08.084Z,545.3
2023-11-20T05:46:10.354Z,544.8
2023-11-20T05:47:12.326Z,544.8
2023-11-20T05:48:14.452Z,545.1
2023-11-20T05:49:16.315Z,545.4
2023-11-20T05:50:18.117Z,545.1
2023-11-20T05:51:19.948Z,544.8
2023-11-20T05:52:21.744Z,544.5
2023-11-20T05:53:23.687Z,544.5
2023-11-20T05:54:25.439Z,544.6
2023-11-20T05:55:27.197Z,544.7
2023-11-20T05:56:28.933Z,544.7
2023-11-20T05:57:30.639Z,544.6
2023-11-20T05:58:32.425Z,544.8
2023-11-20T05:59:34.273Z,545.2
2023-11-20T06:00:36.036Z,545.4
2023-11-20T06:01:38.433Z,545.1
2023-11-20T06:02:40.567Z,545
2023-11-20T06:03:42.926Z,545.3
2023-11-20T06:04:44.996Z,545.8
2023-11-20T06:05:46.867Z,545.8
2023-11-20T06:06:48.771Z,546.3
2023-11-20T06:07:50.780Z,546.4
2023-11-20T06:08:52.736Z,545.7
2023-11-20T06:09:54.806Z,545.1
2023-11-20T06:10:56.590Z,544.8
2023-11-20T06:11:58.325Z,544.5
2023-11-20T06:13:00.432Z,544.4
2023-11-20T06:14:02.477Z,544.6
2023-11-20T06:15:04.245Z,544.7
2023-11-20T06:16:06.358Z,544.5
2023-11-20T06:17:08.389Z,544.4
2023-11-20T06:18:10.274Z,545.1
2023-11-20T06:19:12.373Z,545.3
2023-11-20T06:20:14.147Z,545.7
2023-11-20T06:21:15.913Z,545.8
2023-11-20T06:22:18.260Z,545.8
2023-11-20T06:23:20.399Z,545.9
2023-11-20T06:24:22.200Z,545.4
2023-11-20T06:25:23.949Z,545.4
2023-11-20T06:26:25.697Z,545
2023-11-20T06:27:27.509Z,544.8
2023-11-20T06:28:29.237Z,544.3
2023-11-20T06:29:31.056Z,544.1
2023-11-20T06:30:32.880Z,544.4
2023-11-20T06:31:35.231Z,544.2
2023-11-20T06:32:37.284Z,543.4
2023-11-20T06:33:39.286Z,543.7
2023-11-20T06:34:41.044Z,543.9
2023-11-20T06:35:42.784Z,544
2023-11-20T06:36:44.683Z,543.7
2023-11-20T06:37:46.430Z,543.8
2023-11-20T06:38:48.234Z,544
2023-11-20T06:39:50.375Z,543.9
2023-11-20T06:40:52.253Z,544.3
2023-11-20T06:41:54.077Z,544.2
2023-11-20T06:42:56.105Z,544.2
2023-11-20T06:43:58.192Z,543.7
2023-11-20T06:44:59.976Z,543.3
2023-11-20T06:46:02.621Z,543
2023-11-20T06:47:04.667Z,542.6
2023-11-20T06:48:06.761Z,542.1
2023-11-20T06:49:08.925Z,541.7
2023-11-20T06:50:10.766Z,541.7
2023-11-20T06:51:12.628Z,541.3
2023-11-20T06:52:14.654Z,541.3
2023-11-20T06:53:16.403Z,541.9
2023-11-20T06:54:18.178Z,541.9
2023-11-20T06:55:20.499Z,542.6
2023-11-20T06:56:22.297Z,542.1
2023-11-20T06:57:24.110Z,542.2
2023-11-20T06:58:25.878Z,542.6
2023-11-20T06:59:27.687Z,542.2
2023-11-20T07:00:29.456Z,542.3
2023-11-20T07:01:31.352Z,542.4
2023-11-20T07:02:33.531Z,542.2
2023-11-20T07:03:35.847Z,542.5
2023-11-20T07:04:38.319Z,542.6
2023-11-20T07:05:40.243Z,543.7
2023-11-20T07:06:42.269Z,543.9
2023-11-20T07:07:44.081Z,543.7
2023-11-20T07:08:45.921Z,543.9
2023-11-20T07:09:47.856Z,543.4
2023-11-20T07:10:49.940Z,543.5
2023-11-20T07:11:51.697Z,543.5
2023-11-20T07:12:53.921Z,543
2023-11-20T07:13:55.909Z,543.1
2023-11-20T07:14:57.678Z,542.6
2023-11-20T07:15:59.720Z,542.6
2023-11-20T07:17:02.281Z,542.7
2023-11-20T07:18:04.546Z,542.8
2023-11-20T07:19:06.464Z,543
2023-11-20T07:20:08.282Z,543.1
2023-11-20T07:21:10.100Z,543
2023-11-20T07:22:12.240Z,543.3
2023-11-20T07:23:14.092Z,543
2023-11-20T07:24:15.966Z,543
2023-11-20T07:25:18.302Z,543.6
2023-11-20T07:26:20.214Z,543.9
2023-11-20T07:27:21.989Z,543.7
2023-11-20T07:28:24.153Z,543.7
2023-11-20T07:29:26.020Z,544.1
2023-11-20T07:30:27.817Z,543.1
2023-11-20T07:31:30.319Z,543.4
2023-11-20T07:32:32.390Z,543.7
2023-11-20T07:33:34.209Z,544.6
2023-11-20T07:34:35.965Z,544.7
2023-11-20T07:35:37.710Z,545
2023-11-20T07:36:39.830Z,545.1
2023-11-20T07:37:41.589Z,545.4
2023-11-20T07:38:43.363Z,545.3
2023-11-20T07:39:45.224Z,545
2023-11-20T07:40:47.256Z,544.8
2023-11-20T07:41:49.234Z,545
2023-11-20T07:42:51.608Z,545.1
2023-11-20T07:43:53.451Z,545
2023-11-20T07:44:55.337Z,545
2023-11-20T07:45:57.758Z,545.2
2023-11-20T07:47:00.712Z,545.9
2023-11-20T07:48:02.786Z,546.4
2023-11-20T07:49:04.839Z,546.2
2023-11-20T07:50:06.723Z,546.6
2023-11-20T07:51:08.627Z,547.2
2023-11-20T07:52:10.825Z,547.5
2023-11-20T07:53:12.706Z,547.4
2023-11-20T07:54:14.477Z,547.2
2023-11-20T07:55:16.450Z,547.3
2023-11-20T07:56:18.261Z,547.4
2023-11-20T07:57:20.071Z,547.5
2023-11-20T07:58:22.354Z,547.2
2023-11-20T07:59:24.219Z,547.3
2023-11-20T08:00:26.031Z,547.4
2023-11-20T08:01:27.794Z,547
2023-11-20T08:02:29.821Z,546.8
2023-11-20T08:03:31.579Z,547.2
2023-11-20T08:04:34.138Z,546.8
2023-11-20T08:05:51.452Z,547.1
2023-11-20T08:06:53.732Z,547.6
2023-11-20T08:07:55.705Z,548.2
2023-11-20T08:08:57.499Z,548.2
2023-11-20T08:09:59.458Z,548.1
2023-11-20T08:11:01.225Z,548.4
2023-11-20T08:12:03.037Z,548.6
2023-11-20T08:13:05.434Z,548.2
2023-11-20T08:14:07.487Z,548
2023-11-20T08:15:09.310Z,547.9
2023-11-20T08:16:11.535Z,548
2023-11-20T08:17:19.810Z,548.5
2023-11-20T08:18:21.713Z,548.6
2023-11-20T08:19:23.505Z,548.5
2023-11-20T08:20:28.094Z,548.3
2023-11-20T08:21:29.796Z,548.5
2023-11-20T08:22:36.646Z,548.3
2023-11-20T08:23:38.445Z,548.6
2023-11-20T08:24:40.919Z,548.3
2023-11-20T08:25:42.896Z,548.4
2023-11-20T08:26:44.616Z,548.6
2023-11-20T08:27:46.541Z,548.1
2023-11-20T08:28:48.537Z,547.8
2023-11-20T08:29:50.345Z,548.5
2023-11-20T08:30:52.213Z,549.1
2023-11-20T08:31:54.292Z,549.4
2023-11-20T08:32:56.149Z,549.4
2023-11-20T08:33:58.496Z,549.4
2023-11-20T08:35:00.416Z,549.7
2023-11-20T08:36:02.264Z,549.5
2023-11-20T08:37:05.078Z,549.8
2023-11-20T08:38:07.319Z,550.3
2023-11-20T08:39:09.371Z,550.6
2023-11-20T08:40:11.975Z,550.4
2023-11-20T08:41:13.841Z,550.2
2023-11-20T08:42:15.652Z,549.7
2023-11-20T08:43:17.932Z,549.7
2023-11-20T08:44:19.967Z,549.2
2023-11-20T08:45:21.767Z,549.6
2023-11-20T08:46:24.667Z,549.5
2023-11-20T08:47:26.890Z,549.6
2023-11-20T08:48:29.033Z,549.5
2023-11-20T08:49:30.864Z,549.6
2023-11-20T08:50:32.646Z,550.2
2023-11-20T08:51:34.579Z,549.7
2023-11-20T08:52:36.514Z,550.2
2023-11-20T08:53:38.314Z,550
2023-11-20T08:54:40.089Z,550
2023-11-20T08:55:41.991Z,549.3
2023-11-20T08:56:43.786Z,549.1
2023-11-20T08:57:45.865Z,549.2
2023-11-20T08:58:47.720Z,549
2023-11-20T08:59:49.768Z,549.4
2023-11-20T09:00:51.786Z,549.3
2023-11-20T09:01:54.104Z,549.4
2023-11-20T09:02:56.130Z,549.6
2023-11-20T09:03:58.504Z,549.7
2023-11-20T09:05:00.455Z,549.6
2023-11-20T09:06:02.407Z,549.3
2023-11-20T09:07:04.456Z,549.5
2023-11-20T09:08:06.258Z,549.3
2023-11-20T09:09:08.007Z,549.7
2023-11-20T09:10:10.202Z,549.6
2023-11-20T09:11:12.049Z,549.9
2023-11-20T09:12:13.986Z,550.1
2023-11-20T09:13:16.066Z,549.8
2023-11-20T09:14:18.056Z,550.2
2023-11-20T09:15:19.999Z,549.9
2023-11-20T09:16:22.677Z,550.2
2023-11-20T09:17:24.663Z,550.5
2023-11-20T09:18:26.451Z,551.7
2023-11-20T09:19:28.406Z,551.8
2023-11-20T09:20:30.173Z,551.6
2023-11-20T09:21:31.968Z,551.7
2023-11-20T09:22:33.722Z,551.7
2023-11-20T09:23:35.480Z,551.9
2023-11-20T09:24:37.204Z,552.1
2023-11-20T09:25:39.689Z,552.5
2023-11-20T09:26:41.526Z,552.5
2023-11-20T09:27:43.432Z,552.3
2023-11-20T09:28:45.807Z,552
2023-11-20T09:29:47.687Z,552
2023-11-20T09:30:49.858Z,552.1
2023-11-20T09:31:51.744Z,552.2
2023-11-20T09:32:53.727Z,552.5
2023-11-20T09:33:55.586Z,552.5
2023-11-20T09:34:57.363Z,552.7
2023-11-20T09:35:59.156Z,552.3
2023-11-20T09:37:01.119Z,552.8
2023-11-20T09:38:02.873Z,552.8
2023-11-20T09:39:04.687Z,553
2023-11-20T09:40:06.847Z,553.3
2023-11-20T09:41:09.000Z,553.2
2023-11-20T09:42:10.913Z,553.4
2023-11-20T09:43:13.106Z,553.7
2023-11-20T09:44:14.895Z,554
2023-11-20T09:45:16.700Z,554.1
2023-11-20T09:46:18.889Z,553.8
2023-11-20T09:47:21.104Z,554.2
2023-11-20T09:48:23.276Z,554.1
2023-11-20T09:49:25.538Z,554.4
2023-11-20T09:50:27.353Z,554.1
2023-11-20T09:51:29.077Z,553.8
2023-11-20T09:52:30.826Z,553.7
2023-11-20T09:53:32.610Z,554.2
2023-11-20T09:54:36.657Z,554.4
2023-11-20T09:55:38.394Z,554.9
2023-11-20T09:56:40.209Z,555
2023-11-20T09:57:41.902Z,555.3
2023-11-20T09:58:43.785Z,555.4
2023-11-20T09:59:45.509Z,555.4
2023-11-20T10:00:47.400Z,555.4
2023-11-20T10:01:49.700Z,555.4
2023-11-20T10:02:51.814Z,555.4
2023-11-20T10:03:54.239Z,555.2
2023-11-20T10:04:56.063Z,555.4
2023-11-20T10:05:58.026Z,555.4
2023-11-20T10:06:59.921Z,555.7
2023-11-20T10:08:01.683Z,555.6
2023-11-20T10:09:03.625Z,555.7
2023-11-20T10:10:05.694Z,555.8
2023-11-20T10:11:07.499Z,555.6
2023-11-20T10:12:09.291Z,556.1
2023-11-20T10:13:11.336Z,555.9
2023-11-20T10:14:13.100Z,556.2
2023-11-20T10:15:15.021Z,555.9
2023-11-20T10:16:17.214Z,556.5
2023-11-20T10:17:19.613Z,555.9
2023-11-20T10:18:21.723Z,555.8
2023-11-20T10:19:23.891Z,556.7
2023-11-20T10:20:25.692Z,556.8
2023-11-20T10:21:27.425Z,556.7
2023-11-20T10:22:29.555Z,557.2
2023-11-20T10:23:35.873Z,557.2
2023-11-20T10:24:37.660Z,557
2023-11-20T10:25:39.464Z,557.2
2023-11-20T10:26:41.174Z,556.9
2023-11-20T10:27:42.996Z,556.9
2023-11-20T10:28:44.765Z,556.7
2023-11-20T10:29:46.571Z,557.1
2023-11-20T10:30:48.813Z,556.7
2023-11-20T10:31:52.085Z,557.1
2023-11-20T10:32:54.628Z,557.2
2023-11-20T10:33:56.588Z,557.1
2023-11-20T10:34:58.358Z,557.2
2023-11-20T10:36:04.104Z,557.6
2023-11-20T10:37:06.486Z,557.3
2023-11-20T10:38:08.440Z,557.5
2023-11-20T10:39:10.752Z,557.4
2023-11-20T10:40:12.750Z,557.5
2023-11-20T10:41:14.524Z,557.4
2023-11-20T10:42:16.251Z,557.5
2023-11-20T10:43:18.432Z,557.8
2023-11-20T10:44:20.425Z,557.5
2023-11-20T10:45:22.218Z,558.1
2023-11-20T10:46:24.204Z,558.2
2023-11-20T10:47:26.048Z,558.5
2023-11-20T10:48:28.463Z,558.6
2023-11-20T10:49:30.424Z,558.7
2023-11-20T10:50:32.236Z,558.6
2023-11-20T10:51:34.016Z,558.7
2023-11-20T10:52:35.774Z,558.5
2023-11-20T10:53:37.628Z,558.6
2023-11-20T10:54:39.483Z,558.3
2023-11-20T10:55:41.295Z,558
2023-11-20T10:56:43.234Z,557.7
2023-11-20T10:57:45.053Z,557.6
2023-11-20T10:58:46.872Z,557.1
2023-11-20T10:59:48.663Z,556.9
2023-11-20T11:00:51.196Z,557
2023-11-20T11:01:53.552Z,557
2023-11-20T11:03:19.534Z,557.3
2023-11-20T11:04:21.872Z,558.2
2023-11-20T11:05:26.451Z,558
2023-11-20T11:06:28.228Z,558
2023-11-20T11:07:30.460Z,557.7
2023-11-20T11:08:32.244Z,557.5
2023-11-20T11:09:34.022Z,557.4
2023-11-20T11:10:35.972Z,557.2
2023-11-20T11:11:40.278Z,556.8
2023-11-20T11:12:42.152Z,556.9
2023-11-20T11:13:43.903Z,556.9
2023-11-20T11:14:45.680Z,556.8
2023-11-20T11:15:47.819Z,556.8
2023-11-20T11:16:49.618Z,556.7
2023-11-20T11:17:51.870Z,556.4
2023-11-20T11:18:54.439Z,556.5
2023-11-20T11:19:56.337Z,556.6
2023-11-20T11:20:58.104Z,557.1
2023-11-20T11:21:59.913Z,556.6
2023-11-20T11:23:01.684Z,556.6
2023-11-20T11:24:03.468Z,556.4
2023-11-20T11:25:05.728Z,556.7
2023-11-20T11:26:07.585Z,556.2
2023-11-20T11:27:09.340Z,556.7
2023-11-20T11:28:11.482Z,556.4
2023-11-20T11:29:13.244Z,556.6
2023-11-20T11:30:15.053Z,556.3
2023-11-20T11:31:19.987Z,556
2023-11-20T11:32:21.880Z,556.2
2023-11-20T11:33:23.686Z,556.4
2023-11-20T11:34:25.895Z,556.2
2023-11-20T11:35:27.931Z,556.2
2023-11-20T11:36:29.758Z,556.5
2023-11-20T11:37:31.861Z,556.1
2023-11-20T11:38:33.777Z,556.2
2023-11-20T11:39:35.565Z,556.4
2023-11-20T11:40:37.339Z,556.5
2023-11-20T11:41:39.101Z,556.5
2023-11-20T11:42:40.882Z,556.9
2023-11-20T11:43:42.719Z,556.4
2023-11-20T11:44:49.480Z,556
2023-11-20T11:45:51.382Z,555.8
2023-11-20T11:48:00.358Z,556.6
2023-11-20T11:49:02.388Z,556.8
2023-11-20T11:50:09.481Z,556.2
2023-11-20T11:51:11.396Z,556.3
2023-11-20T11:52:13.461Z,556.3
2023-11-20T11:53:15.292Z,556.5
2023-11-20T11:54:17.125Z,556.8
2023-11-20T11:55:19.366Z,556.7
2023-11-20T11:56:21.324Z,556.5
2023-11-20T11:57:23.101Z,556.4
2023-11-20T11:58:25.016Z,556.4
2023-11-20T11:59:26.785Z,556.5
2023-11-20T12:00:28.825Z,556.9
2023-11-20T12:01:30.556Z,557.4
2023-11-20T12:02:32.488Z,557.4
2023-11-20T12:03:34.751Z,557.8
2023-11-20T12:04:37.336Z,557.3
2023-11-20T12:05:39.490Z,557.1
2023-11-20T12:06:41.330Z,556.6
2023-11-20T12:07:43.136Z,556.8
2023-11-20T12:08:44.869Z,556.8
2023-11-20T12:09:46.629Z,557
2023-11-20T12:10:48.418Z,556.4
2023-11-20T12:11:50.268Z,556.1
2023-11-20T12:12:52.837Z,556.1
2023-11-20T12:13:54.627Z,555.8
2023-11-20T12:14:56.375Z,556.3
2023-11-20T12:15:59.040Z,556.2
2023-11-20T12:17:01.543Z,556.5
2023-11-20T12:18:04.700Z,556.4
2023-11-20T12:19:06.701Z,556.9
2023-11-20T12:20:08.548Z,557
2023-11-20T12:21:10.427Z,557.4
2023-11-20T12:22:12.666Z,557.3
2023-11-20T12:23:14.582Z,556.9
2023-11-20T12:24:16.409Z,556.7
2023-11-20T12:25:18.457Z,556.8
2023-11-20T12:26:20.401Z,557
2023-11-20T12:27:22.289Z,557.3
2023-11-20T12:28:24.525Z,557.3
2023-11-20T12:29:26.475Z,557.4
2023-11-20T12:30:28.274Z,557.3
2023-11-20T12:31:30.571Z,557.3
2023-11-20T12:32:32.907Z,557.3
2023-11-20T12:33:34.809Z,557.2
2023-11-20T12:34:36.536Z,557
2023-11-20T12:35:38.455Z,556.9
2023-11-20T12:36:40.243Z,557
2023-11-20T12:37:42.136Z,557
2023-11-20T12:38:43.906Z,557.2
2023-11-20T12:39:45.657Z,557.4
2023-11-20T12:40:47.395Z,557.9
2023-11-20T12:41:49.226Z,557.7
2023-11-20T12:42:51.227Z,557.8
2023-11-20T12:43:53.100Z,557.9
2023-11-20T12:44:54.878Z,557.8
2023-11-20T12:45:57.203Z,558
2023-11-20T12:46:59.653Z,557.8
2023-11-20T12:48:01.665Z,557.5
2023-11-20T12:49:03.758Z,557.7
2023-11-20T12:50:05.561Z,558.1
2023-11-20T12:51:08.881Z,557.6
2023-11-20T12:52:11.423Z,557.5
2023-11-20T12:53:13.476Z,557.5
2023-11-20T12:54:15.324Z,557.7
2023-11-20T12:55:17.503Z,557.6
2023-11-20T12:56:19.412Z,557.7
2023-11-20T12:57:21.251Z,557.4
2023-11-20T12:58:23.453Z,557.7
2023-11-20T12:59:25.246Z,557.3
2023-11-20T13:00:27.049Z,557.6
2023-11-20T13:01:29.105Z,557.4
2023-11-20T13:02:31.371Z,557.6
2023-11-20T13:03:34.036Z,557.6
2023-11-20T13:04:36.470Z,557.7
2023-11-20T13:05:38.531Z,558.1
2023-11-20T13:06:40.387Z,558.1
2023-11-20T13:07:44.373Z,558.3
2023-11-20T13:08:46.243Z,558.6
2023-11-20T13:09:48.076Z,558.2
2023-11-20T13:10:49.999Z,558.2
2023-11-20T13:11:51.786Z,558.2
2023-11-20T13:12:53.639Z,558.2
2023-11-20T13:13:55.414Z,557.9
2023-11-20T13:14:57.204Z,557.5
2023-11-20T13:16:02.282Z,558.1
2023-11-20T13:17:04.737Z,557.5
2023-11-20T13:18:06.836Z,557.2
2023-11-20T13:19:08.858Z,557.2
2023-11-20T13:20:10.787Z,557.3
2023-11-20T13:21:12.542Z,557.2
2023-11-20T13:22:14.657Z,557
2023-11-20T13:23:16.467Z,557.2
2023-11-20T13:24:18.243Z,557.5
2023-11-20T13:25:20.072Z,557.4
2023-11-20T13:26:21.900Z,557